Time;durP1;ratioP1;P1;durP2;ratioP2;P2;SDS_P1;SDS_P2;PMS_P1;PMS_P2;Temp;Humidity;BMP_temperature;BMP_pressure;BME280_temperature;BME280_humidity;BME280_pressure;Samples;Min_cycle;Max_cycle;Signal;HPM_P1;HPM_P2
2021/03/14 00:02:15;;;;;;;3.67;1.10;;;6.70;75.70;;;;;;4991167;28;20093;-94
2021/03/14 00:04:42;;;;;;;4.90;1.40;;;6.70;75.80;;;;;;4990825;28;20034;-94
2021/03/14 00:07:08;;;;;;;5.80;1.40;;;6.70;76.00;;;;;;4985526;28;20030;-94
2021/03/14 00:09:34;;;;;;;5.03;1.50;;;6.60;75.80;;;;;;4987100;28;20030;-93
2021/03/14 00:12:00;;;;;;;5.18;1.40;;;6.60;75.90;;;;;;4983951;28;20458;-94
2021/03/14 00:14:26;;;;;;;7.32;1.48;;;6.60;75.90;;;;;;4995174;28;20034;-93
2021/03/14 00:16:52;;;;;;;5.60;1.30;;;6.50;75.90;;;;;;4995389;28;20037;-93
2021/03/14 00:19:18;;;;;;;4.10;1.40;;;6.50;75.90;;;;;;4995653;28;20110;-94
2021/03/14 00:21:45;;;;;;;5.43;1.20;;;6.60;75.90;;;;;;4995294;28;20057;-94
2021/03/14 00:24:10;;;;;;;3.70;1.10;;;6.60;75.90;;;;;;4994511;28;20034;-92
2021/03/14 00:26:36;;;;;;;4.93;1.30;;;6.60;75.90;;;;;;4975165;28;20029;-92
2021/03/14 00:29:03;;;;;;;4.22;1.13;;;6.60;75.90;;;;;;4991916;28;20053;-94
2021/03/14 00:31:28;;;;;;;6.80;1.42;;;6.60;75.90;;;;;;4995554;28;20619;-94
2021/03/14 00:33:54;;;;;;;4.57;1.17;;;6.50;75.80;;;;;;4995292;28;20030;-94
2021/03/14 00:36:19;;;;;;;4.93;1.38;;;6.60;75.80;;;;;;4987789;28;20023;-92
2021/03/14 00:38:45;;;;;;;4.68;1.30;;;6.50;75.70;;;;;;4994506;28;20037;-92
2021/03/14 00:41:11;;;;;;;4.43;1.35;;;6.60;75.80;;;;;;4994171;28;20074;-91
2021/03/14 00:43:37;;;;;;;6.57;1.42;;;6.60;75.80;;;;;;4993178;28;20026;-92
2021/03/14 00:46:02;;;;;;;4.07;1.30;;;6.50;75.70;;;;;;4993366;28;20145;-93
2021/03/14 00:48:28;;;;;;;6.28;1.20;;;6.60;75.70;;;;;;4995326;28;20092;-94
2021/03/14 00:50:54;;;;;;;5.60;1.35;;;6.60;75.70;;;;;;4993862;28;20429;-92
2021/03/14 00:53:20;;;;;;;4.88;1.30;;;6.50;75.70;;;;;;4982366;28;20037;-94
2021/03/14 00:55:46;;;;;;;7.03;1.63;;;6.50;75.70;;;;;;4990581;28;20027;-92
2021/03/14 00:58:11;;;;;;;9.77;1.95;;;6.60;75.80;;;;;;4992588;28;20552;-91
2021/03/14 01:00:37;;;;;;;5.50;1.90;;;6.60;75.60;;;;;;4994664;28;20015;-90
2021/03/14 01:03:03;;;;;;;6.80;1.63;;;6.60;75.60;;;;;;4993065;28;20069;-90
2021/03/14 01:05:29;;;;;;;4.22;1.25;;;6.60;75.60;;;;;;4993002;28;20038;-90
2021/03/14 01:07:55;;;;;;;3.60;1.20;;;6.60;75.60;;;;;;4981761;28;20041;-92
2021/03/14 01:10:20;;;;;;;7.40;1.58;;;6.70;75.60;;;;;;4991401;28;20470;-92
2021/03/14 01:12:46;;;;;;;6.38;1.52;;;6.70;75.50;;;;;;4993565;28;20073;-90
2021/03/14 01:15:13;;;;;;;4.03;1.17;;;6.70;75.50;;;;;;4993830;28;20042;-90
2021/03/14 01:17:39;;;;;;;4.10;1.25;;;6.70;75.50;;;;;;4987345;28;20022;-89
2021/03/14 01:20:08;;;;;;;3.22;1.20;;;6.70;75.40;;;;;;4994581;28;20113;-92
2021/03/14 01:22:34;;;;;;;5.22;1.50;;;6.80;75.30;;;;;;4992490;28;20022;-91
2021/03/14 01:25:00;;;;;;;4.22;1.33;;;6.80;75.30;;;;;;4991385;28;20050;-92
2021/03/14 01:27:25;;;;;;;6.65;1.50;;;6.80;75.30;;;;;;5005475;28;20473;-94
2021/03/14 01:29:51;;;;;;;7.20;1.70;;;6.90;75.30;;;;;;5000992;28;20054;-94
2021/03/14 01:32:17;;;;;;;3.40;1.27;;;6.90;75.20;;;;;;4998803;28;20027;-94
2021/03/14 01:34:43;;;;;;;4.18;1.30;;;6.90;75.20;;;;;;5004722;28;20022;-94
2021/03/14 01:37:08;;;;;;;3.50;1.13;;;6.90;75.10;;;;;;5006401;28;20023;-93
2021/03/14 01:39:34;;;;;;;3.50;1.33;;;6.80;75.10;;;;;;5007723;28;20040;-95
2021/03/14 01:41:59;;;;;;;3.78;1.23;;;6.90;75.10;;;;;;5012834;28;20046;-93
2021/03/14 01:44:25;;;;;;;4.00;1.38;;;6.90;75.10;;;;;;5013487;28;20034;-96
2021/03/14 01:46:51;;;;;;;5.63;1.60;;;6.90;75.00;;;;;;4996517;28;20082;-94
2021/03/14 01:49:17;;;;;;;4.57;1.20;;;6.90;75.00;;;;;;4993904;28;20030;-94
2021/03/14 01:51:43;;;;;;;7.57;1.42;;;6.90;74.90;;;;;;4995061;28;20014;-92
2021/03/14 01:54:10;;;;;;;6.00;1.55;;;6.90;74.90;;;;;;4995771;28;20022;-94
2021/03/14 01:56:36;;;;;;;3.28;1.42;;;6.90;75.00;;;;;;4993446;28;20072;-92
2021/03/14 01:59:02;;;;;;;5.13;1.25;;;6.90;75.00;;;;;;4993750;28;20042;-92
2021/03/14 02:01:28;;;;;;;4.60;1.23;;;6.90;74.90;;;;;;4992433;28;20031;-93
2021/03/14 02:03:53;;;;;;;4.97;1.45;;;6.90;74.90;;;;;;4993237;28;20042;-95
2021/03/14 02:06:19;;;;;;;5.25;1.10;;;6.90;74.90;;;;;;4994019;28;20190;-95
2021/03/14 02:08:45;;;;;;;4.80;1.48;;;6.90;74.90;;;;;;4993705;28;20244;-96
2021/03/14 02:11:11;;;;;;;3.20;1.10;;;6.90;74.80;;;;;;4993730;28;20082;-93
2021/03/14 02:13:43;;;;;;;4.60;1.25;;;6.90;74.90;;;;;;4991799;28;20543;-93
2021/03/14 02:16:18;;;;;;;6.23;1.50;;;6.90;74.80;;;;;;4982660;28;20058;-93
2021/03/14 02:18:48;;;;;;;2.20;1.10;;;6.90;75.00;;;;;;4990975;28;20086;-93
2021/03/14 02:21:14;;;;;;;4.03;1.25;;;6.90;75.00;;;;;;4993411;28;20019;-92
2021/03/14 02:23:39;;;;;;;3.05;0.90;;;6.90;75.00;;;;;;4974619;28;20117;-90
2021/03/14 02:26:12;;;;;;;4.13;1.08;;;6.90;74.90;;;;;;4973284;28;20134;-91
2021/03/14 02:28:39;;;;;;;4.05;1.35;;;6.90;74.80;;;;;;4991326;28;20023;-90
2021/03/14 02:31:05;;;;;;;5.80;1.35;;;7.00;74.90;;;;;;4989076;28;20027;-91
2021/03/14 02:33:34;;;;;;;5.03;1.25;;;7.00;74.90;;;;;;4973441;28;20027;-92
2021/03/14 02:36:00;;;;;;;6.28;1.35;;;7.00;74.80;;;;;;4988009;28;20022;-92
2021/03/14 02:38:27;;;;;;;7.80;1.40;;;7.00;75.50;;;;;;4982729;28;20474;-92
2021/03/14 02:40:57;;;;;;;6.32;1.30;;;6.90;75.50;;;;;;4978084;28;20034;-91
2021/03/14 02:43:25;;;;;;;5.20;1.13;;;6.90;74.90;;;;;;4992209;28;20042;-91
2021/03/14 02:45:53;;;;;;;3.30;1.00;;;6.90;74.90;;;;;;4992826;28;20031;-91
2021/03/14 02:48:19;;;;;;;7.22;1.50;;;6.90;74.90;;;;;;4988282;28;20030;-91
2021/03/14 02:50:46;;;;;;;4.50;1.15;;;6.90;74.90;;;;;;4992732;28;20026;-92
2021/03/14 02:53:12;;;;;;;3.30;1.08;;;6.90;74.90;;;;;;4992193;28;20030;-90
2021/03/14 02:55:38;;;;;;;5.40;1.65;;;6.90;74.90;;;;;;4987502;28;20027;-92
2021/03/14 02:58:04;;;;;;;3.85;1.23;;;6.90;74.90;;;;;;4987974;28;20117;-91
2021/03/14 03:00:31;;;;;;;6.53;1.40;;;6.90;75.00;;;;;;4989553;28;20018;-93
2021/03/14 03:02:57;;;;;;;6.82;1.27;;;6.90;75.00;;;;;;4993452;28;20030;-93
2021/03/14 03:05:24;;;;;;;6.15;1.27;;;6.90;75.10;;;;;;4991098;28;20458;-93
2021/03/14 03:07:56;;;;;;;4.97;1.23;;;6.90;75.10;;;;;;4992588;28;20018;-94
2021/03/14 03:10:27;;;;;;;4.63;1.40;;;6.90;75.10;;;;;;4995308;28;20026;-94
2021/03/14 03:12:57;;;;;;;4.80;1.45;;;6.90;75.10;;;;;;4996205;28;20027;-96
2021/03/14 03:15:23;;;;;;;5.18;1.77;;;6.80;75.10;;;;;;4990112;28;20080;-94
2021/03/14 03:17:49;;;;;;;4.22;1.10;;;6.80;75.20;;;;;;4994788;28;20050;-93
2021/03/14 03:20:16;;;;;;;4.93;1.25;;;6.80;75.20;;;;;;4995143;28;20370;-94
2021/03/14 03:22:42;;;;;;;6.57;1.50;;;6.80;75.30;;;;;;4991650;28;20038;-93
2021/03/14 03:25:10;;;;;;;5.25;1.50;;;6.80;75.20;;;;;;4984615;28;20037;-93
2021/03/14 03:27:36;;;;;;;6.75;1.65;;;6.80;75.20;;;;;;4991986;28;20019;-93
2021/03/14 03:30:08;;;;;;;6.38;1.63;;;6.80;75.20;;;;;;4995239;28;20027;-94
2021/03/14 03:32:34;;;;;;;4.82;1.58;;;6.80;75.20;;;;;;4980106;28;20035;-93
2021/03/14 03:34:59;;;;;;;4.32;1.20;;;6.70;75.10;;;;;;4995989;28;20362;-93
2021/03/14 03:37:25;;;;;;;6.30;1.40;;;6.70;75.20;;;;;;4996334;28;20014;-93
2021/03/14 03:39:51;;;;;;;4.75;1.38;;;6.70;75.20;;;;;;4988590;28;20022;-90
2021/03/14 03:42:25;;;;;;;5.63;1.63;;;6.70;75.20;;;;;;4989117;28;20026;-90
2021/03/14 03:44:52;;;;;;;6.57;1.65;;;6.70;75.20;;;;;;4995471;28;20045;-91
2021/03/14 03:47:18;;;;;;;7.95;2.08;;;6.60;75.20;;;;;;4995723;28;20022;-92
2021/03/14 03:49:48;;;;;;;6.65;1.70;;;6.60;75.20;;;;;;4995881;28;20102;-91
2021/03/14 03:52:17;;;;;;;4.57;1.50;;;6.60;75.10;;;;;;4992611;28;20019;-90
2021/03/14 03:54:44;;;;;;;6.88;1.33;;;6.60;75.10;;;;;;4994292;28;20025;-92
2021/03/14 03:57:11;;;;;;;7.60;2.00;;;6.60;75.00;;;;;;4988621;28;20528;-92
2021/03/14 03:59:37;;;;;;;6.45;1.88;;;6.60;75.10;;;;;;4996577;28;20034;-91
2021/03/14 04:02:04;;;;;;;5.72;1.60;;;6.60;75.00;;;;;;4995609;28;20074;-91
2021/03/14 04:04:33;;;;;;;5.63;1.27;;;6.70;75.00;;;;;;4993857;28;20042;-91
2021/03/14 04:07:01;;;;;;;7.88;2.05;;;6.60;75.00;;;;;;4994133;28;20581;-91
2021/03/14 04:09:27;;;;;;;5.53;1.65;;;6.60;75.00;;;;;;4995406;28;20172;-89
2021/03/14 04:11:54;;;;;;;5.82;1.65;;;6.60;75.60;;;;;;4994668;28;20018;-90
2021/03/14 04:14:22;;;;;;;7.93;1.73;;;6.60;74.90;;;;;;4984943;28;20114;-89
2021/03/14 04:16:48;;;;;;;5.13;1.42;;;6.50;74.90;;;;;;4987201;28;20469;-90
2021/03/14 04:19:17;;;;;;;4.90;1.88;;;6.50;75.00;;;;;;4993368;28;20026;-90
2021/03/14 04:21:42;;;;;;;6.07;1.58;;;6.50;75.20;;;;;;4993878;28;20025;-90
2021/03/14 04:24:11;;;;;;;6.90;1.77;;;6.50;75.30;;;;;;4993937;28;20035;-91
2021/03/14 04:26:45;;;;;;;5.88;1.85;;;6.50;75.40;;;;;;4994265;28;20046;-88
2021/03/14 04:29:12;;;;;;;5.90;1.92;;;6.50;75.50;;;;;;4982432;28;20041;-91
2021/03/14 04:31:43;;;;;;;6.38;1.88;;;6.50;75.60;;;;;;4983354;28;20073;-90
2021/03/14 04:34:10;;;;;;;5.63;1.73;;;6.50;75.70;;;;;;4994819;28;20029;-91
2021/03/14 04:36:38;;;;;;;5.18;1.73;;;6.40;75.90;;;;;;4984923;28;20023;-91
2021/03/14 04:39:04;;;;;;;3.42;1.20;;;6.40;76.00;;;;;;4985996;28;20014;-91
2021/03/14 04:41:32;;;;;;;5.65;1.63;;;6.40;76.00;;;;;;4994334;28;20030;-90
2021/03/14 04:43:59;;;;;;;7.65;1.73;;;6.50;76.20;;;;;;4992454;28;20045;-91
2021/03/14 04:46:24;;;;;;;3.88;1.42;;;6.40;76.20;;;;;;4993695;28;20080;-91
2021/03/14 04:48:56;;;;;;;6.07;2.00;;;6.50;76.30;;;;;;4995226;28;20692;-96
2021/03/14 04:51:27;;;;;;;8.15;2.20;;;6.50;76.30;;;;;;4991287;28;20093;-92
2021/03/14 04:53:55;;;;;;;4.60;1.70;;;6.50;76.40;;;;;;4992778;28;20037;-92
2021/03/14 04:56:21;;;;;;;6.97;1.65;;;6.50;76.40;;;;;;4975035;28;20031;-90
2021/03/14 04:58:50;;;;;;;5.35;1.40;;;6.50;76.40;;;;;;4976504;28;20031;-91
2021/03/14 05:01:19;;;;;;;10.57;2.33;;;6.50;76.40;;;;;;4993926;28;20018;-91
2021/03/14 05:03:48;;;;;;;3.90;1.48;;;6.50;76.50;;;;;;4993546;28;20041;-90
2021/03/14 05:06:18;;;;;;;4.00;1.30;;;6.60;76.60;;;;;;4984149;28;20429;-90
2021/03/14 05:08:45;;;;;;;6.18;1.75;;;6.60;76.50;;;;;;4976191;28;20029;-90
2021/03/14 05:11:18;;;;;;;7.18;1.63;;;6.60;76.50;;;;;;4992591;28;20507;-91
2021/03/14 05:13:45;;;;;;;4.72;1.65;;;6.60;76.60;;;;;;4993332;28;20038;-93
2021/03/14 05:16:12;;;;;;;5.78;1.67;;;6.60;76.50;;;;;;4987710;28;20014;-93
2021/03/14 05:18:38;;;;;;;6.70;1.67;;;6.60;76.60;;;;;;4994469;28;20230;-91
2021/03/14 05:21:05;;;;;;;8.48;1.85;;;6.60;76.70;;;;;;4992976;28;20589;-91
2021/03/14 05:23:32;;;;;;;6.32;1.33;;;6.60;76.70;;;;;;4993291;28;20117;-90
2021/03/14 05:25:59;;;;;;;4.72;1.35;;;6.60;76.80;;;;;;4991768;28;20057;-89
2021/03/14 05:28:26;;;;;;;5.50;1.70;;;6.60;76.80;;;;;;4988256;28;20034;-89
2021/03/14 05:30:51;;;;;;;6.50;1.63;;;6.60;76.90;;;;;;4987538;28;20042;-91
2021/03/14 05:33:17;;;;;;;7.20;1.73;;;6.60;76.90;;;;;;4974297;28;20113;-90
2021/03/14 05:35:42;;;;;;;3.95;1.35;;;6.50;77.00;;;;;;4992849;28;20033;-90
2021/03/14 05:38:08;;;;;;;4.45;1.77;;;6.50;77.00;;;;;;4981164;28;20460;-90
2021/03/14 05:40:34;;;;;;;6.43;2.15;;;6.50;77.20;;;;;;4993412;28;20029;-90
2021/03/14 05:42:59;;;;;;;6.50;2.00;;;6.50;77.20;;;;;;4990665;28;20477;-91
2021/03/14 05:45:26;;;;;;;3.08;1.60;;;6.40;77.30;;;;;;4974761;28;20390;-91
2021/03/14 05:47:52;;;;;;;4.30;2.00;;;6.40;77.30;;;;;;4989099;28;20026;-90
2021/03/14 05:50:21;;;;;;;4.35;2.00;;;6.40;77.30;;;;;;4978015;28;20023;-92
2021/03/14 05:52:48;;;;;;;4.22;1.90;;;6.40;77.40;;;;;;4979451;28;20022;-91
2021/03/14 05:55:25;;;;;;;4.63;2.20;;;6.30;77.50;;;;;;4989291;28;20465;-91
2021/03/14 05:57:52;;;;;;;3.63;1.83;;;6.30;77.60;;;;;;4985946;28;20026;-94
2021/03/14 06:00:26;;;;;;;4.43;1.90;;;6.40;77.60;;;;;;4984636;28;20029;-94
2021/03/14 06:02:59;;;;;;;3.83;1.50;;;6.40;78.20;;;;;;4977298;28;20069;-95
2021/03/14 06:05:26;;;;;;;2.50;1.50;;;6.40;77.60;;;;;;4980036;28;20030;-94
2021/03/14 06:07:53;;;;;;;2.50;1.60;;;6.30;77.50;;;;;;4983875;28;20022;-93
2021/03/14 06:10:18;;;;;;;2.80;1.60;;;6.40;77.70;;;;;;4984300;28;20010;-92
2021/03/14 06:12:45;;;;;;;2.22;1.58;;;6.40;77.70;;;;;;4992939;28;20099;-94
2021/03/14 06:15:12;;;;;;;3.22;1.48;;;6.40;77.70;;;;;;4978271;28;20023;-93
2021/03/14 06:17:37;;;;;;;3.42;1.65;;;6.40;77.70;;;;;;4982980;28;20117;-93
2021/03/14 06:20:05;;;;;;;4.65;2.03;;;6.40;77.80;;;;;;4993352;28;20042;-96
2021/03/14 06:22:31;;;;;;;4.78;2.22;;;6.40;78.50;;;;;;4981214;28;20030;-95
2021/03/14 06:24:57;;;;;;;5.05;1.98;;;6.50;78.10;;;;;;4992382;28;20473;-96
2021/03/14 06:27:31;;;;;;;3.35;2.00;;;6.50;78.10;;;;;;4977101;28;20096;-95
2021/03/14 06:29:57;;;;;;;2.85;1.45;;;6.50;78.20;;;;;;4978278;28;20125;-91
2021/03/14 06:32:23;;;;;;;3.78;1.70;;;6.50;78.10;;;;;;4992210;28;20497;-92
2021/03/14 06:35:14;;;;;;;2.65;2.00;;;6.50;78.20;;;;;;4992919;28;20023;-93
2021/03/14 06:37:40;;;;;;;3.40;1.80;;;6.50;78.40;;;;;;4982679;28;20026;-91
2021/03/14 06:40:08;;;;;;;3.35;1.58;;;6.50;78.40;;;;;;4980332;28;20030;-93
2021/03/14 06:42:37;;;;;;;3.88;2.10;;;6.50;78.50;;;;;;4991588;28;20098;-94
2021/03/14 06:45:04;;;;;;;2.05;1.20;;;6.50;78.60;;;;;;4988860;28;20094;-93
2021/03/14 06:47:39;;;;;;;2.95;1.80;;;6.50;78.60;;;;;;4998515;28;20030;-94
2021/03/14 06:50:07;;;;;;;3.90;1.98;;;6.50;78.70;;;;;;4987920;28;20034;-96
2021/03/14 06:52:32;;;;;;;3.85;1.85;;;6.60;78.60;;;;;;4995868;28;20019;-94
2021/03/14 06:54:58;;;;;;;2.58;1.58;;;6.60;78.60;;;;;;4996859;28;20555;-90
2021/03/14 06:57:23;;;;;;;5.15;2.05;;;6.60;78.40;;;;;;4988947;28;20516;-90
2021/03/14 06:59:54;;;;;;;2.85;2.00;;;6.70;78.50;;;;;;4979810;28;20812;-94
2021/03/14 07:02:24;;;;;;;4.97;1.98;;;6.60;78.40;;;;;;4990121;28;20113;-91
2021/03/14 07:04:54;;;;;;;1.67;1.23;;;6.70;78.60;;;;;;4991778;28;20045;-91
2021/03/14 07:07:28;;;;;;;1.75;1.50;;;6.70;78.60;;;;;;4989715;28;20018;-93
2021/03/14 07:09:59;;;;;;;2.92;1.45;;;6.80;78.60;;;;;;4979042;28;20058;-90
2021/03/14 07:12:39;;;;;;;4.63;2.20;;;6.80;78.50;;;;;;4980842;28;20373;-93
2021/03/14 07:15:16;;;;;;;1.95;1.48;;;6.70;78.70;;;;;;4984509;28;20026;-93
2021/03/14 07:17:49;;;;;;;3.35;2.05;;;6.70;79.30;;;;;;4985786;28;20031;-92
2021/03/14 07:20:18;;;;;;;2.10;1.70;;;6.70;78.90;;;;;;4985967;28;20079;-93
2021/03/14 07:22:57;;;;;;;2.40;1.92;;;6.60;78.90;;;;;;4992397;28;20026;-92
2021/03/14 07:25:24;;;;;;;4.53;1.95;;;6.60;79.20;;;;;;4989204;28;20030;-92
2021/03/14 07:27:50;;;;;;;4.60;2.28;;;6.60;79.50;;;;;;4972406;28;20035;-93
2021/03/14 07:30:22;;;;;;;5.32;2.50;;;6.60;79.60;;;;;;4976775;28;20046;-91
2021/03/14 07:32:49;;;;;;;4.70;2.57;;;6.60;79.60;;;;;;4991432;28;20040;-92
2021/03/14 07:35:15;;;;;;;4.22;2.22;;;6.60;79.60;;;;;;4983781;28;20776;-91
2021/03/14 07:37:42;;;;;;;4.88;2.75;;;6.70;79.50;;;;;;4989465;28;20045;-91
2021/03/14 07:40:13;;;;;;;4.20;2.28;;;6.70;79.50;;;;;;4987695;28;20070;-91
2021/03/14 07:42:40;;;;;;;5.55;2.67;;;6.70;79.70;;;;;;4992427;28;20117;-94
2021/03/14 07:45:10;;;;;;;4.50;2.53;;;6.70;79.80;;;;;;4989500;28;20034;-94
2021/03/14 07:47:38;;;;;;;5.78;2.92;;;6.80;79.80;;;;;;4988790;28;20022;-95
2021/03/14 07:50:32;;;;;;;5.30;2.60;;;6.80;79.80;;;;;;4994983;28;20096;-96
2021/03/14 07:53:09;;;;;;;4.30;3.17;;;6.90;79.70;;;;;;4993708;28;20097;-95
2021/03/14 07:55:35;;;;;;;3.65;2.45;;;6.90;79.50;;;;;;4992504;28;20042;-96
2021/03/14 07:58:03;;;;;;;4.68;2.20;;;7.00;79.40;;;;;;4995833;28;20483;-94
2021/03/14 08:00:34;;;;;;;4.18;2.42;;;7.10;79.80;;;;;;4996168;28;20058;-94
2021/03/14 08:03:04;;;;;;;4.97;2.70;;;7.10;79.20;;;;;;4999704;28;20085;-92
2021/03/14 08:05:42;;;;;;;5.60;2.53;;;7.30;79.20;;;;;;4978768;28;20041;-92
2021/03/14 08:08:24;;;;;;;5.80;2.35;;;7.40;78.90;;;;;;4994721;28;20022;-92
2021/03/14 08:10:51;;;;;;;3.47;2.00;;;7.50;78.60;;;;;;4995265;28;20054;-92
2021/03/14 08:13:42;;;;;;;4.55;2.75;;;7.50;78.40;;;;;;4994442;28;20022;-93
2021/03/14 08:16:10;;;;;;;5.00;2.38;;;7.60;78.60;;;;;;4988942;28;20027;-93
2021/03/14 08:18:54;;;;;;;3.72;2.40;;;7.60;78.50;;;;;;4986332;28;20118;-93
2021/03/14 08:21:20;;;;;;;7.13;3.30;;;7.70;78.50;;;;;;4978252;28;20054;-93
2021/03/14 08:23:48;;;;;;;6.32;3.15;;;7.70;78.40;;;;;;4979246;28;20062;-92
2021/03/14 08:26:27;;;;;;;5.50;2.70;;;7.70;78.40;;;;;;4995837;28;20072;-93
2021/03/14 08:29:12;;;;;;;4.47;2.45;;;7.80;78.30;;;;;;4983133;28;20536;-93
2021/03/14 08:31:48;;;;;;;7.68;3.00;;;7.80;78.30;;;;;;4983691;28;20473;-94
2021/03/14 08:34:18;;;;;;;6.28;3.38;;;7.80;78.20;;;;;;4994583;28;20414;-94
2021/03/14 08:36:45;;;;;;;7.22;3.15;;;7.90;78.20;;;;;;4994592;28;20089;-94
2021/03/14 08:39:31;;;;;;;4.78;2.90;;;8.00;78.10;;;;;;4994276;28;20025;-94
2021/03/14 08:42:01;;;;;;;5.75;2.70;;;8.10;78.10;;;;;;4987630;28;20071;-92
2021/03/14 08:44:33;;;;;;;5.53;2.63;;;8.10;77.90;;;;;;4988269;28;20061;-92
2021/03/14 08:47:00;;;;;;;7.65;2.97;;;8.20;77.70;;;;;;4989367;28;20026;-92
2021/03/14 08:49:26;;;;;;;7.40;3.10;;;8.20;77.50;;;;;;4993121;28;20109;-93
2021/03/14 08:51:52;;;;;;;4.72;2.40;;;8.30;77.40;;;;;;4992522;28;20019;-91
2021/03/14 08:54:38;;;;;;;4.88;2.40;;;8.30;77.40;;;;;;4986817;28;20010;-94
2021/03/14 08:57:09;;;;;;;5.57;2.88;;;8.40;77.40;;;;;;4991217;28;20023;-94
2021/03/14 08:59:49;;;;;;;5.18;2.67;;;8.50;77.20;;;;;;4990865;28;20042;-93
2021/03/14 09:02:32;;;;;;;6.88;3.00;;;8.40;77.10;;;;;;4986382;28;20617;-95
2021/03/14 09:05:11;;;;;;;5.80;2.92;;;8.40;77.10;;;;;;4981199;28;20035;-89
2021/03/14 09:07:36;;;;;;;4.05;2.85;;;8.40;77.10;;;;;;4982015;28;20026;-87
2021/03/14 09:10:17;;;;;;;5.82;2.90;;;8.40;77.10;;;;;;4987467;28;20395;-88
2021/03/14 09:12:44;;;;;;;5.95;2.60;;;8.50;77.20;;;;;;4990583;28;20026;-89
2021/03/14 09:15:12;;;;;;;5.88;3.45;;;8.50;77.10;;;;;;4989683;28;20022;-89
2021/03/14 09:17:39;;;;;;;9.63;3.10;;;8.60;77.00;;;;;;4988811;28;20022;-89
2021/03/14 09:20:06;;;;;;;4.85;2.40;;;8.60;77.00;;;;;;4978483;28;20023;-89
2021/03/14 09:22:33;;;;;;;5.60;2.83;;;8.60;77.00;;;;;;4989144;28;20105;-90
2021/03/14 09:25:10;;;;;;;10.77;3.35;;;8.60;76.90;;;;;;4991329;28;20061;-89
2021/03/14 09:27:38;;;;;;;7.25;2.90;;;8.70;76.80;;;;;;4986370;28;20108;-89
2021/03/14 09:30:10;;;;;;;5.75;2.67;;;8.70;76.70;;;;;;4979220;28;20058;-88
2021/03/14 09:32:42;;;;;;;6.97;2.60;;;8.80;76.70;;;;;;4986002;28;20026;-88
2021/03/14 09:35:26;;;;;;;7.25;3.33;;;8.80;76.60;;;;;;4990873;28;20038;-89
2021/03/14 09:38:03;;;;;;;5.65;2.47;;;8.90;76.40;;;;;;4989105;28;20528;-92
2021/03/14 09:40:41;;;;;;;4.05;1.92;;;9.00;76.30;;;;;;4994322;28;20613;-91
2021/03/14 09:43:25;;;;;;;4.53;1.83;;;9.10;76.10;;;;;;4996284;28;20134;-88
2021/03/14 09:45:55;;;;;;;8.85;3.47;;;9.30;75.80;;;;;;5004184;28;20039;-88
2021/03/14 09:48:28;;;;;;;5.97;2.58;;;9.40;75.20;;;;;;4997945;28;20030;-86
2021/03/14 09:51:00;;;;;;;6.38;2.42;;;9.40;75.00;;;;;;4993758;28;20027;-88
2021/03/14 09:53:30;;;;;;;5.47;2.72;;;9.50;74.70;;;;;;5006499;28;20026;-89
2021/03/14 09:56:00;;;;;;;7.72;3.05;;;9.60;74.50;;;;;;5003783;28;20034;-91
2021/03/14 09:58:28;;;;;;;6.97;2.83;;;9.60;74.10;;;;;;4989529;28;20030;-90
2021/03/14 10:00:56;;;;;;;4.78;2.55;;;9.70;74.00;;;;;;4986910;28;20169;-90
2021/03/14 10:03:32;;;;;;;4.55;2.42;;;9.80;73.70;;;;;;4991530;28;20034;-90
2021/03/14 10:06:00;;;;;;;6.43;2.80;;;9.90;73.50;;;;;;4986259;28;20121;-87
2021/03/14 10:08:30;;;;;;;7.70;3.00;;;9.90;73.20;;;;;;4998064;28;20054;-90
2021/03/14 10:11:05;;;;;;;4.25;2.30;;;10.00;72.90;;;;;;4992003;28;20030;-88
2021/03/14 10:13:32;;;;;;;5.82;2.40;;;10.00;72.70;;;;;;4987198;28;20029;-88
2021/03/14 10:16:00;;;;;;;5.57;2.40;;;10.00;72.70;;;;;;4987936;28;20042;-89
2021/03/14 10:18:30;;;;;;;6.00;2.80;;;10.10;72.60;;;;;;4987865;28;20072;-87
2021/03/14 10:21:23;;;;;;;6.32;2.20;;;10.00;72.30;;;;;;4976309;28;20026;-91
2021/03/14 10:23:49;;;;;;;4.80;2.28;;;10.00;72.20;;;;;;4979212;28;20034;-90
2021/03/14 10:26:15;;;;;;;5.05;1.83;;;9.90;72.20;;;;;;4980037;28;20030;-86
2021/03/14 10:28:44;;;;;;;4.95;1.80;;;9.90;72.50;;;;;;4988645;28;20033;-88
2021/03/14 10:31:13;;;;;;;3.50;1.80;;;10.00;72.40;;;;;;4987962;28;20026;-88
2021/03/14 10:33:42;;;;;;;5.93;2.10;;;9.90;72.10;;;;;;4980043;28;20030;-89
2021/03/14 10:36:13;;;;;;;3.05;1.70;;;9.80;72.00;;;;;;4980039;28;20042;-88
2021/03/14 10:38:44;;;;;;;1.67;1.30;;;9.80;71.80;;;;;;4988192;28;20039;-88
2021/03/14 10:41:13;;;;;;;2.20;1.00;;;9.70;71.20;;;;;;4985937;28;20030;-89
2021/03/14 10:43:56;;;;;;;1.83;1.08;;;9.60;70.70;;;;;;4985252;28;20027;-88
2021/03/14 10:46:38;;;;;;;1.38;0.77;;;9.50;70.30;;;;;;4990668;28;20027;-88
2021/03/14 10:49:09;;;;;;;1.70;0.80;;;9.40;70.50;;;;;;4986704;28;20034;-88
2021/03/14 10:51:36;;;;;;;1.50;0.70;;;9.40;70.60;;;;;;4989727;28;20041;-87
2021/03/14 10:54:11;;;;;;;2.03;1.20;;;9.40;70.70;;;;;;4989005;28;20481;-88
2021/03/14 10:56:39;;;;;;;1.05;0.90;;;9.40;70.40;;;;;;4990196;28;20053;-83
2021/03/14 10:59:06;;;;;;;2.30;1.15;;;9.40;70.40;;;;;;4989690;28;20034;-89
2021/03/14 11:01:40;;;;;;;5.35;1.40;;;9.50;70.30;;;;;;4981617;28;20527;-90
2021/03/14 11:04:07;;;;;;;2.45;1.25;;;9.70;70.40;;;;;;4989596;28;20128;-89
2021/03/14 11:06:33;;;;;;;3.67;1.50;;;9.80;70.30;;;;;;4974107;28;20031;-88
2021/03/14 11:09:03;;;;;;;2.38;1.50;;;9.80;70.20;;;;;;4989760;28;20038;-88
2021/03/14 11:11:41;;;;;;;3.55;1.50;;;9.80;70.40;;;;;;4985214;28;20054;-89
2021/03/14 11:14:36;;;;;;;3.20;1.60;;;9.80;70.60;;;;;;4990916;28;20033;-89
2021/03/14 11:17:13;;;;;;;2.47;1.23;;;9.80;70.60;;;;;;4987068;28;20117;-89
2021/03/14 11:19:45;;;;;;;2.67;1.27;;;9.80;70.60;;;;;;4984852;28;20046;-89
2021/03/14 11:22:19;;;;;;;3.63;1.40;;;9.80;70.70;;;;;;4990285;28;20022;-88
2021/03/14 11:24:46;;;;;;;1.55;1.20;;;9.90;70.70;;;;;;4986229;28;20092;-88
2021/03/14 11:27:12;;;;;;;2.47;1.40;;;10.00;70.60;;;;;;4995354;28;20034;-90
2021/03/14 11:29:39;;;;;;;3.42;1.55;;;10.20;70.40;;;;;;4994971;28;20559;-90
2021/03/14 11:32:09;;;;;;;2.25;1.08;;;10.20;69.90;;;;;;4994601;28;20070;-89
2021/03/14 11:34:34;;;;;;;3.35;1.30;;;10.20;69.90;;;;;;4993316;28;20716;-89
2021/03/14 11:37:00;;;;;;;2.78;1.10;;;10.30;69.80;;;;;;4994376;28;20113;-87
2021/03/14 11:39:25;;;;;;;2.58;1.10;;;10.30;69.60;;;;;;4986021;28;20122;-87
2021/03/14 11:41:51;;;;;;;2.72;1.25;;;10.40;69.40;;;;;;4987392;28;20019;-88
2021/03/14 11:44:17;;;;;;;3.20;1.40;;;10.40;69.20;;;;;;4989385;28;20065;-88
2021/03/14 11:46:45;;;;;;;2.20;1.25;;;10.50;69.10;;;;;;4988794;28;20037;-88
2021/03/14 11:49:11;;;;;;;6.15;1.50;;;10.50;69.10;;;;;;4992050;28;20022;-88
2021/03/14 11:51:36;;;;;;;3.15;1.00;;;10.50;69.10;;;;;;4984964;28;20023;-87
2021/03/14 11:54:02;;;;;;;3.92;1.17;;;10.50;69.20;;;;;;4985722;28;20504;-87
2021/03/14 11:56:29;;;;;;;2.05;0.98;;;10.50;69.20;;;;;;4985717;28;20033;-88
2021/03/14 11:58:57;;;;;;;4.38;1.20;;;10.60;69.30;;;;;;4985103;28;20025;-88
2021/03/14 12:01:26;;;;;;;3.10;1.30;;;10.60;69.00;;;;;;4993232;28;20076;-88
2021/03/14 12:03:52;;;;;;;3.28;1.30;;;10.60;68.10;;;;;;4993138;28;20042;-89
2021/03/14 12:06:18;;;;;;;4.75;1.55;;;10.60;67.60;;;;;;4986953;28;20079;-89
2021/03/14 12:08:43;;;;;;;3.20;1.50;;;10.70;67.40;;;;;;4993000;28;20026;-90
2021/03/14 12:11:09;;;;;;;4.15;1.50;;;10.70;66.60;;;;;;4994800;28;20034;-89
2021/03/14 12:13:35;;;;;;;2.83;1.00;;;10.70;65.30;;;;;;4991295;28;20027;-89
2021/03/14 12:16:02;;;;;;;2.92;1.00;;;10.60;65.40;;;;;;4983800;28;20034;-89
2021/03/14 12:18:33;;;;;;;2.63;1.20;;;10.70;65.40;;;;;;4989796;28;20019;-89
2021/03/14 12:20:59;;;;;;;3.70;1.27;;;10.70;65.10;;;;;;4982404;28;20035;-88
2021/03/14 12:23:24;;;;;;;1.50;0.90;;;10.70;64.30;;;;;;4980146;28;20034;-88
2021/03/14 12:25:50;;;;;;;3.05;1.20;;;10.80;64.50;;;;;;4994258;28;20030;-89
2021/03/14 12:28:16;;;;;;;1.80;0.98;;;10.80;64.00;;;;;;4993201;28;20106;-89
2021/03/14 12:30:42;;;;;;;6.85;1.63;;;10.90;64.30;;;;;;4994515;28;20026;-89
2021/03/14 12:33:09;;;;;;;2.05;1.00;;;10.90;64.20;;;;;;4993307;28;20029;-87
2021/03/14 12:35:35;;;;;;;4.68;1.30;;;10.90;64.10;;;;;;4992040;28;20114;-87
2021/03/14 12:38:01;;;;;;;3.08;1.20;;;10.90;63.90;;;;;;4991145;28;20019;-88
2021/03/14 12:40:27;;;;;;;3.75;1.27;;;11.00;64.10;;;;;;4992613;28;20548;-86
2021/03/14 12:42:52;;;;;;;3.10;1.10;;;11.20;63.70;;;;;;4990184;28;20041;-87
2021/03/14 12:45:22;;;;;;;3.42;1.25;;;11.10;63.40;;;;;;4989066;28;20678;-88
2021/03/14 12:47:51;;;;;;;2.65;1.13;;;11.10;63.70;;;;;;4984368;28;20037;-85
2021/03/14 12:50:17;;;;;;;4.45;1.30;;;11.00;63.40;;;;;;4991267;28;20048;-87
2021/03/14 12:52:42;;;;;;;3.00;1.50;;;10.90;63.50;;;;;;4990241;28;20477;-86
2021/03/14 12:55:09;;;;;;;3.08;1.20;;;10.70;63.70;;;;;;4981276;28;20026;-86
2021/03/14 12:57:35;;;;;;;2.70;1.10;;;10.60;64.50;;;;;;4991838;28;20551;-87
2021/03/14 13:00:03;;;;;;;4.10;1.33;;;10.40;65.30;;;;;;4991473;28;20034;-87
2021/03/14 13:02:29;;;;;;;3.53;1.40;;;10.30;66.20;;;;;;4984096;28;20046;-85
2021/03/14 13:04:54;;;;;;;2.35;1.02;;;10.20;66.90;;;;;;4988282;28;20042;-86